Time;durP1;ratioP1;P1;durP2;ratioP2;P2;SDS_P1;SDS_P2;PMS_P1;PMS_P2;Temp;Humidity;BMP_temperature;BMP_pressure;BME280_temperature;BME280_humidity;BME280_pressure;Samples;Min_cycle;Max_cycle;Signal;HPM_P1;HPM_P2
2023/04/30 00:01:48;;;;;;;1.45;0.90;;;;;;;;;;4947519;28;20066;-84
2023/04/30 00:04:14;;;;;;;1.08;0.70;;;;;;;;;;4951375;28;20083;-84
2023/04/30 00:06:40;;;;;;;1.00;0.82;;;;;;;;;;4949825;28;20584;-84
2023/04/30 00:09:06;;;;;;;1.10;0.93;;;;;;;;;;4946639;28;20657;-84
2023/04/30 00:11:32;;;;;;;3.55;0.77;;;;;;;;;;4950351;28;20038;-85
2023/04/30 00:13:58;;;;;;;1.27;0.98;;;;;;;;;;4937213;28;20422;-84
2023/04/30 00:16:24;;;;;;;1.65;0.60;;;;;;;;;;4946356;28;20031;-84
2023/04/30 00:18:50;;;;;;;1.60;1.23;;;;;;;;;;4945244;28;20084;-85
2023/04/30 00:21:16;;;;;;;0.60;0.60;;;;;;;;;;4949999;28;20027;-85
2023/04/30 00:23:42;;;;;;;0.85;0.85;;;;;;;;;;4948248;28;20510;-85
2023/04/30 00:26:08;;;;;;;0.80;0.80;;;;;;;;;;4945071;28;20023;-85
2023/04/30 00:28:37;;;;;;;1.77;0.95;;;;;;;;;;4947369;28;20549;-85
2023/04/30 00:31:05;;;;;;;2.00;0.88;;;;;;;;;;4948872;28;20023;-84
2023/04/30 00:33:31;;;;;;;4.05;1.08;;;;;;;;;;4926594;29;20051;-84
2023/04/30 00:35:57;;;;;;;0.80;0.80;;;;;;;;;;4949544;28;20038;-84
2023/04/30 00:38:23;;;;;;;1.55;1.10;;;;;;;;;;4958314;28;20035;-85
2023/04/30 00:40:49;;;;;;;1.83;0.90;;;;;;;;;;4946336;28;20026;-84
2023/04/30 00:43:15;;;;;;;1.27;1.00;;;;;;;;;;4938745;29;20059;-84
2023/04/30 00:45:41;;;;;;;0.95;0.80;;;;;;;;;;4946154;28;20035;-84
2023/04/30 00:48:07;;;;;;;1.15;0.82;;;;;;;;;;4947833;28;20031;-84
2023/04/30 00:50:35;;;;;;;1.05;0.85;;;;;;;;;;4945179;28;20058;-84
2023/04/30 00:53:01;;;;;;;1.27;0.90;;;;;;;;;;4943395;28;20062;-84
2023/04/30 00:55:27;;;;;;;0.88;0.63;;;;;;;;;;4941002;28;20027;-83
2023/04/30 00:57:54;;;;;;;1.08;0.90;;;;;;;;;;4938626;28;20126;-84
2023/04/30 01:00:20;;;;;;;1.02;0.65;;;;;;;;;;4938172;28;20027;-84
2023/04/30 01:02:49;;;;;;;1.08;0.60;;;;;;;;;;4947589;28;20537;-83
2023/04/30 01:05:15;;;;;;;1.65;0.73;;;;;;;;;;4948434;28;20134;-84
2023/04/30 01:07:44;;;;;;;1.00;0.95;;;;;;;;;;4939067;28;20059;-84
2023/04/30 01:10:11;;;;;;;0.80;0.73;;;;;;;;;;4948388;28;20047;-84
2023/04/30 01:12:46;;;;;;;1.10;0.75;;;;;;;;;;4947364;28;20035;-83
2023/04/30 01:15:31;;;;;;;1.10;0.80;;;;;;;;;;4945294;28;20047;-85
2023/04/30 01:18:09;;;;;;;2.10;0.88;;;;;;;;;;4948961;28;20027;-84
2023/04/30 01:20:38;;;;;;;0.93;0.70;;;;;;;;;;4944247;28;20102;-84
2023/04/30 01:23:13;;;;;;;1.25;0.85;;;;;;;;;;4948829;28;20075;-85
2023/04/30 01:25:39;;;;;;;1.33;0.77;;;;;;;;;;4944046;28;20039;-84
2023/04/30 01:28:12;;;;;;;0.90;0.80;;;;;;;;;;4951082;28;20024;-85
2023/04/30 01:30:39;;;;;;;1.52;0.80;;;;;;;;;;4945602;28;20042;-85
2023/04/30 01:33:05;;;;;;;0.98;0.85;;;;;;;;;;4926838;29;20031;-85
2023/04/30 01:35:34;;;;;;;1.02;0.70;;;;;;;;;;4948673;28;20064;-84
2023/04/30 01:38:10;;;;;;;0.55;0.55;;;;;;;;;;4946384;28;20125;-84
2023/04/30 01:40:55;;;;;;;1.00;0.80;;;;;;;;;;4945546;28;20040;-83
2023/04/30 01:43:39;;;;;;;0.55;0.52;;;;;;;;;;4944615;28;20102;-84
2023/04/30 01:46:14;;;;;;;1.38;0.70;;;;;;;;;;4936943;28;20126;-84
2023/04/30 01:48:58;;;;;;;3.40;0.40;;;;;;;;;;4946409;28;20023;-85
2023/04/30 01:51:28;;;;;;;0.68;0.68;;;;;;;;;;4945886;28;20114;-84
2023/04/30 01:53:56;;;;;;;0.85;0.73;;;;;;;;;;4948205;28;20709;-85
2023/04/30 01:56:44;;;;;;;1.65;1.00;;;;;;;;;;4940131;28;20043;-84
2023/04/30 01:59:11;;;;;;;2.38;0.55;;;;;;;;;;4942091;28;20035;-84
2023/04/30 02:01:37;;;;;;;1.00;0.70;;;;;;;;;;4937137;28;20115;-84
2023/04/30 02:04:03;;;;;;;0.70;0.70;;;;;;;;;;4942371;28;20078;-84
2023/04/30 02:06:30;;;;;;;0.80;0.80;;;;;;;;;;4943984;28;20043;-84
2023/04/30 02:09:01;;;;;;;1.55;1.15;;;;;;;;;;4938427;28;20114;-84
2023/04/30 02:11:27;;;;;;;0.82;0.65;;;;;;;;;;4942237;28;20032;-84
2023/04/30 02:13:53;;;;;;;0.70;0.60;;;;;;;;;;4947147;28;20047;-84
2023/04/30 02:16:18;;;;;;;0.73;0.68;;;;;;;;;;4945756;28;20038;-87
2023/04/30 02:18:45;;;;;;;0.75;0.75;;;;;;;;;;4948227;28;20031;-86
2023/04/30 02:21:11;;;;;;;0.52;0.52;;;;;;;;;;4946564;28;20035;-84
2023/04/30 02:23:37;;;;;;;1.38;0.80;;;;;;;;;;4948734;28;20031;-84
2023/04/30 02:26:03;;;;;;;0.63;0.63;;;;;;;;;;4943975;28;20501;-84
2023/04/30 02:28:29;;;;;;;1.23;0.80;;;;;;;;;;4944363;28;20023;-84
2023/04/30 02:30:55;;;;;;;0.80;0.60;;;;;;;;;;4927825;28;20027;-85
2023/04/30 02:33:21;;;;;;;1.60;1.15;;;;;;;;;;4951306;28;20078;-84
2023/04/30 02:35:47;;;;;;;0.68;0.57;;;;;;;;;;4926930;28;20035;-84
2023/04/30 02:38:13;;;;;;;1.02;0.80;;;;;;;;;;4944746;28;20124;-83
2023/04/30 02:40:41;;;;;;;1.08;0.80;;;;;;;;;;4947336;28;20031;-85
2023/04/30 02:43:07;;;;;;;1.00;0.90;;;;;;;;;;4944819;28;20056;-85
2023/04/30 02:45:33;;;;;;;0.77;0.60;;;;;;;;;;4947899;28;20150;-84
2023/04/30 02:47:59;;;;;;;1.67;0.70;;;;;;;;;;4941657;28;20050;-84
2023/04/30 02:50:25;;;;;;;2.05;0.88;;;;;;;;;;4947639;28;20023;-84
2023/04/30 02:52:51;;;;;;;1.00;0.90;;;;;;;;;;4943758;28;20038;-84
2023/04/30 02:55:17;;;;;;;1.95;1.15;;;;;;;;;;4940041;28;20047;-83
2023/04/30 02:57:43;;;;;;;0.73;0.73;;;;;;;;;;4945747;28;20059;-84
2023/04/30 03:00:09;;;;;;;0.90;0.68;;;;;;;;;;4943219;28;20058;-84
2023/04/30 03:02:35;;;;;;;1.40;0.77;;;;;;;;;;4950223;28;20125;-84
2023/04/30 03:05:02;;;;;;;1.27;0.85;;;;;;;;;;4951014;28;20545;-85
2023/04/30 03:07:29;;;;;;;0.55;0.55;;;;;;;;;;4946843;28;20036;-86
2023/04/30 03:09:55;;;;;;;1.10;1.00;;;;;;;;;;4937948;28;20126;-84
2023/04/30 03:12:21;;;;;;;0.68;0.60;;;;;;;;;;4934574;29;20035;-84
2023/04/30 03:14:47;;;;;;;0.77;0.57;;;;;;;;;;4947448;28;20110;-85
2023/04/30 03:17:13;;;;;;;0.90;0.68;;;;;;;;;;4949029;28;20494;-86
2023/04/30 03:19:38;;;;;;;0.98;0.60;;;;;;;;;;4943030;28;20024;-83
2023/04/30 03:22:04;;;;;;;1.20;0.60;;;;;;;;;;4942057;28;20034;-84
2023/04/30 03:24:31;;;;;;;0.45;0.45;;;;;;;;;;4952575;28;20467;-85
2023/04/30 03:26:57;;;;;;;0.73;0.73;;;;;;;;;;4946289;28;20039;-84
2023/04/30 03:29:23;;;;;;;1.52;0.90;;;;;;;;;;4946804;28;20371;-83
2023/04/30 03:31:49;;;;;;;0.70;0.70;;;;;;;;;;4949784;28;20031;-85
2023/04/30 03:34:15;;;;;;;0.98;0.70;;;;;;;;;;4942553;28;20122;-87
2023/04/30 03:36:41;;;;;;;0.80;0.80;;;;;;;;;;4947451;28;20031;-86
2023/04/30 03:39:08;;;;;;;0.80;0.70;;;;;;;;;;4948874;28;20032;-84
2023/04/30 03:41:34;;;;;;;2.47;0.68;;;;;;;;;;4942695;28;20035;-91
2023/04/30 03:44:00;;;;;;;1.10;0.60;;;;;;;;;;4948352;28;20074;-86
2023/04/30 03:46:26;;;;;;;0.60;0.57;;;;;;;;;;4950153;28;20174;-84
2023/04/30 03:48:53;;;;;;;1.33;0.60;;;;;;;;;;4944796;28;20325;-85
2023/04/30 03:51:20;;;;;;;0.63;0.52;;;;;;;;;;4946647;28;20732;-85
2023/04/30 03:53:46;;;;;;;0.50;0.50;;;;;;;;;;4943477;28;20036;-84
2023/04/30 03:56:12;;;;;;;0.95;0.80;;;;;;;;;;4945800;28;20023;-85
2023/04/30 03:58:38;;;;;;;0.73;0.60;;;;;;;;;;4951664;28;20086;-84
2023/04/30 04:01:04;;;;;;;0.77;0.75;;;;;;;;;;4951236;28;20051;-85
2023/04/30 04:03:31;;;;;;;0.75;0.75;;;;;;;;;;4948182;28;20039;-85
2023/04/30 04:05:56;;;;;;;1.27;0.47;;;;;;;;;;4940718;28;20043;-85
2023/04/30 04:08:22;;;;;;;0.68;0.60;;;;;;;;;;4946897;28;20039;-85
2023/04/30 04:10:48;;;;;;;0.50;0.50;;;;;;;;;;4940344;28;20023;-85
2023/04/30 04:13:14;;;;;;;0.82;0.52;;;;;;;;;;4944881;28;21143;-84
2023/04/30 04:15:40;;;;;;;1.13;0.60;;;;;;;;;;4947709;28;20470;-84
2023/04/30 04:18:07;;;;;;;0.77;0.75;;;;;;;;;;4945210;28;20039;-84
2023/04/30 04:20:33;;;;;;;1.02;0.85;;;;;;;;;;4937281;28;20032;-85
2023/04/30 04:22:59;;;;;;;0.60;0.60;;;;;;;;;;4942934;28;20696;-85
2023/04/30 04:25:26;;;;;;;1.55;0.57;;;;;;;;;;4941458;29;20102;-85
2023/04/30 04:27:52;;;;;;;0.50;0.50;;;;;;;;;;4945871;28;20114;-85
2023/04/30 04:30:18;;;;;;;2.05;0.50;;;;;;;;;;4941872;28;20042;-85
2023/04/30 04:32:49;;;;;;;0.70;0.70;;;;;;;;;;4949650;28;20110;-85
2023/04/30 04:35:15;;;;;;;0.80;0.43;;;;;;;;;;4947123;28;20035;-84
2023/04/30 04:37:41;;;;;;;1.00;0.70;;;;;;;;;;4937112;28;20031;-85
2023/04/30 04:40:08;;;;;;;0.70;0.60;;;;;;;;;;4947531;29;20110;-85
2023/04/30 04:42:34;;;;;;;0.70;0.50;;;;;;;;;;4946509;28;20115;-86
2023/04/30 04:45:02;;;;;;;0.82;0.70;;;;;;;;;;4940654;28;20035;-84
2023/04/30 04:47:28;;;;;;;0.63;0.63;;;;;;;;;;4947525;28;20034;-85
2023/04/30 04:49:54;;;;;;;0.77;0.60;;;;;;;;;;4926641;29;20035;-86
2023/04/30 04:52:20;;;;;;;0.90;0.70;;;;;;;;;;4947363;28;20442;-85
2023/04/30 04:54:46;;;;;;;0.55;0.47;;;;;;;;;;4939377;28;20038;-85
2023/04/30 04:57:12;;;;;;;1.35;0.82;;;;;;;;;;4944503;28;20027;-87
2023/04/30 04:59:38;;;;;;;0.75;0.60;;;;;;;;;;4944855;28;20039;-85
2023/04/30 05:02:04;;;;;;;1.30;0.70;;;;;;;;;;4944273;28;20020;-84
2023/04/30 05:04:30;;;;;;;0.70;0.60;;;;;;;;;;4947531;28;20114;-85
2023/04/30 05:06:56;;;;;;;0.60;0.60;;;;;;;;;;4951317;28;20051;-85
2023/04/30 05:09:22;;;;;;;0.73;0.73;;;;;;;;;;4948950;28;20470;-85
2023/04/30 05:11:48;;;;;;;1.50;0.80;;;;;;;;;;4953078;28;20042;-85
2023/04/30 05:14:14;;;;;;;0.85;0.68;;;;;;;;;;4945055;28;20039;-85
2023/04/30 05:16:40;;;;;;;1.33;0.63;;;;;;;;;;4947178;28;20443;-84
2023/04/30 05:19:08;;;;;;;1.05;0.60;;;;;;;;;;4926435;29;20475;-84
2023/04/30 05:21:34;;;;;;;0.50;0.43;;;;;;;;;;4944137;28;20106;-85
2023/04/30 05:24:04;;;;;;;0.47;0.47;;;;;;;;;;4945854;28;20114;-84
2023/04/30 05:26:30;;;;;;;0.63;0.57;;;;;;;;;;4923617;29;20035;-82
2023/04/30 05:28:56;;;;;;;0.60;0.60;;;;;;;;;;4949742;28;20058;-83
2023/04/30 05:31:22;;;;;;;3.28;0.75;;;;;;;;;;4934534;28;20024;-84
2023/04/30 05:33:48;;;;;;;1.38;0.60;;;;;;;;;;4941725;28;20519;-83
2023/04/30 05:36:14;;;;;;;0.52;0.52;;;;;;;;;;4949889;28;20278;-83
2023/04/30 05:38:40;;;;;;;0.50;0.50;;;;;;;;;;4944557;28;20538;-84
2023/04/30 05:41:06;;;;;;;0.90;0.68;;;;;;;;;;4947388;28;20070;-83
2023/04/30 05:43:32;;;;;;;0.57;0.57;;;;;;;;;;4946939;28;20035;-84
2023/04/30 05:45:58;;;;;;;1.42;0.68;;;;;;;;;;4949722;28;20028;-83
2023/04/30 05:48:27;;;;;;;0.60;0.60;;;;;;;;;;4943662;28;20471;-85
2023/04/30 05:50:52;;;;;;;1.70;0.77;;;;;;;;;;4939012;28;20023;-86
2023/04/30 05:53:19;;;;;;;0.40;0.40;;;;;;;;;;4949115;28;20034;-84
2023/04/30 05:55:45;;;;;;;0.77;0.57;;;;;;;;;;4947400;28;20061;-84
2023/04/30 05:58:11;;;;;;;0.80;0.70;;;;;;;;;;4944262;28;20202;-81
2023/04/30 06:00:38;;;;;;;0.90;0.70;;;;;;;;;;4953860;28;20106;-82
2023/04/30 06:03:04;;;;;;;1.48;1.23;;;;;;;;;;4939845;28;20117;-84
2023/04/30 06:05:30;;;;;;;3.28;0.60;;;;;;;;;;4943355;28;20079;-82
2023/04/30 06:07:56;;;;;;;0.40;0.40;;;;;;;;;;4947737;28;20028;-82
2023/04/30 06:10:22;;;;;;;0.88;0.60;;;;;;;;;;4951961;28;20116;-82
2023/04/30 06:12:47;;;;;;;0.70;0.50;;;;;;;;;;4947746;28;20121;-83
2023/04/30 06:15:14;;;;;;;1.52;0.63;;;;;;;;;;4952319;28;20034;-82
2023/04/30 06:17:40;;;;;;;1.35;0.50;;;;;;;;;;4948187;28;20042;-78
2023/04/30 06:20:06;;;;;;;0.93;0.85;;;;;;;;;;4946456;28;20027;-82
2023/04/30 06:22:33;;;;;;;0.50;0.50;;;;;;;;;;4946196;28;20633;-80
2023/04/30 06:24:59;;;;;;;0.93;0.60;;;;;;;;;;4952943;28;20019;-80
2023/04/30 06:27:26;;;;;;;0.50;0.50;;;;;;;;;;4952777;28;20431;-80
2023/04/30 06:29:53;;;;;;;2.47;0.60;;;;;;;;;;4952049;28;20034;-80
2023/04/30 06:32:19;;;;;;;0.70;0.50;;;;;;;;;;4949313;28;20027;-81
2023/04/30 06:34:45;;;;;;;0.98;0.68;;;;;;;;;;4949485;28;20159;-81
2023/04/30 06:37:11;;;;;;;0.60;0.60;;;;;;;;;;4929668;29;20035;-81
2023/04/30 06:39:37;;;;;;;0.50;0.50;;;;;;;;;;4953729;28;20027;-77
2023/04/30 06:42:03;;;;;;;0.60;0.60;;;;;;;;;;4951452;28;20042;-83
2023/04/30 06:44:32;;;;;;;0.30;0.30;;;;;;;;;;4943512;28;20035;-85
2023/04/30 06:46:58;;;;;;;0.43;0.35;;;;;;;;;;4948552;28;20106;-85
2023/04/30 06:49:24;;;;;;;1.15;0.60;;;;;;;;;;4952305;28;20039;-76
2023/04/30 06:51:50;;;;;;;0.80;0.63;;;;;;;;;;4940483;28;20042;-82
2023/04/30 06:54:16;;;;;;;0.52;0.47;;;;;;;;;;4949087;28;20023;-81
2023/04/30 06:56:43;;;;;;;3.30;0.60;;;;;;;;;;4940924;28;20038;-79
2023/04/30 06:59:09;;;;;;;0.40;0.40;;;;;;;;;;4948936;28;20035;-74
2023/04/30 07:01:35;;;;;;;0.80;0.65;;;;;;;;;;4941857;28;20042;-79
2023/04/30 07:04:01;;;;;;;1.75;0.40;;;;;;;;;;4944980;28;20036;-84
2023/04/30 07:06:27;;;;;;;1.75;0.57;;;;;;;;;;4950959;28;20043;-86
2023/04/30 07:08:53;;;;;;;0.50;0.50;;;;;;;;;;4947384;28;20034;-89
2023/04/30 07:11:19;;;;;;;0.65;0.60;;;;;;;;;;4945701;28;20049;-79
2023/04/30 07:13:45;;;;;;;3.20;0.57;;;;;;;;;;4950527;28;20027;-84
2023/04/30 07:16:11;;;;;;;2.08;0.60;;;;;;;;;;4932115;28;20376;-84
2023/04/30 07:18:37;;;;;;;1.15;0.73;;;;;;;;;;4946610;28;20114;-79
2023/04/30 07:21:04;;;;;;;0.50;0.50;;;;;;;;;;4951996;28;20503;-75
2023/04/30 07:23:29;;;;;;;0.43;0.43;;;;;;;;;;4944921;28;20218;-77
2023/04/30 07:25:56;;;;;;;0.45;0.45;;;;;;;;;;4947958;28;20064;-77
2023/04/30 07:28:21;;;;;;;0.50;0.50;;;;;;;;;;4950724;28;20023;-77
2023/04/30 07:30:47;;;;;;;2.05;0.50;;;;;;;;;;4942606;28;20055;-76
2023/04/30 07:33:13;;;;;;;1.25;0.68;;;;;;;;;;4945905;28;20038;-76
2023/04/30 07:35:40;;;;;;;0.77;0.55;;;;;;;;;;4945716;28;20682;-78
2023/04/30 07:38:06;;;;;;;1.48;0.60;;;;;;;;;;4939893;28;20075;-80
2023/04/30 07:40:32;;;;;;;1.40;0.60;;;;;;;;;;4944027;28;20458;-81
2023/04/30 07:42:58;;;;;;;2.03;0.50;;;;;;;;;;4944329;28;20111;-81
2023/04/30 07:45:24;;;;;;;0.57;0.57;;;;;;;;;;4948191;28;20447;-80
2023/04/30 07:47:50;;;;;;;1.83;0.73;;;;;;;;;;4951521;28;20055;-81
2023/04/30 07:50:16;;;;;;;1.08;0.70;;;;;;;;;;4951256;28;20042;-81
2023/04/30 07:52:42;;;;;;;0.30;0.30;;;;;;;;;;4948738;28;20158;-82
2023/04/30 07:55:09;;;;;;;1.80;0.60;;;;;;;;;;4945404;28;20035;-80
2023/04/30 07:57:35;;;;;;;0.50;0.50;;;;;;;;;;4947478;28;20089;-80
2023/04/30 08:00:01;;;;;;;0.82;0.68;;;;;;;;;;4951158;28;20130;-80
2023/04/30 08:02:27;;;;;;;0.40;0.40;;;;;;;;;;4950338;28;20102;-80
2023/04/30 08:04:53;;;;;;;0.35;0.35;;;;;;;;;;4946681;28;20493;-81
2023/04/30 08:07:19;;;;;;;4.53;1.65;;;;;;;;;;4936293;28;20134;-80
2023/04/30 08:09:46;;;;;;;0.52;0.50;;;;;;;;;;4935890;28;20513;-81
2023/04/30 08:12:12;;;;;;;0.47;0.47;;;;;;;;;;4944506;28;20098;-80
2023/04/30 08:14:38;;;;;;;2.83;0.57;;;;;;;;;;4945481;28;20478;-80
2023/04/30 08:17:04;;;;;;;0.60;0.60;;;;;;;;;;4949996;28;20035;-81
2023/04/30 08:19:30;;;;;;;0.45;0.45;;;;;;;;;;4948181;28;20023;-85
2023/04/30 08:21:56;;;;;;;0.57;0.30;;;;;;;;;;4920014;29;20031;-85
2023/04/30 08:24:22;;;;;;;1.38;0.50;;;;;;;;;;4942519;28;20027;-87
2023/04/30 08:26:48;;;;;;;0.60;0.60;;;;;;;;;;4939808;28;20032;-78
2023/04/30 08:29:14;;;;;;;0.50;0.50;;;;;;;;;;4945317;28;20024;-75
2023/04/30 08:31:40;;;;;;;0.68;0.50;;;;;;;;;;4932210;29;20426;-75
2023/04/30 08:34:06;;;;;;;1.63;0.75;;;;;;;;;;4944292;28;20517;-75
2023/04/30 08:36:32;;;;;;;0.50;0.40;;;;;;;;;;4946021;28;20038;-75
2023/04/30 08:38:58;;;;;;;1.00;0.85;;;;;;;;;;4947028;28;20035;-75
2023/04/30 08:41:25;;;;;;;0.50;0.50;;;;;;;;;;4935446;29;20023;-75
2023/04/30 08:43:55;;;;;;;0.77;0.50;;;;;;;;;;4948223;28;20035;-75
2023/04/30 08:46:23;;;;;;;0.60;0.60;;;;;;;;;;4930906;29;20027;-75
2023/04/30 08:48:49;;;;;;;0.45;0.43;;;;;;;;;;4935717;28;20078;-75
2023/04/30 08:51:15;;;;;;;0.30;0.30;;;;;;;;;;4938147;28;20039;-75
2023/04/30 08:53:42;;;;;;;0.80;0.50;;;;;;;;;;4944634;28;20028;-75
2023/04/30 08:56:10;;;;;;;1.08;0.75;;;;;;;;;;4944575;28;20066;-75
2023/04/30 08:58:36;;;;;;;0.43;0.43;;;;;;;;;;4948359;28;20041;-75
2023/04/30 09:01:03;;;;;;;1.10;0.75;;;;;;;;;;4948779;28;20029;-75
2023/04/30 09:03:30;;;;;;;0.52;0.50;;;;;;;;;;4943036;28;20047;-75
2023/04/30 09:05:56;;;;;;;0.73;0.47;;;;;;;;;;4947479;28;20132;-74
2023/04/30 09:08:41;;;;;;;0.98;0.60;;;;;;;;;;4946889;28;20027;-74
2023/04/30 09:11:21;;;;;;;1.45;0.80;;;;;;;;;;4931016;29;20032;-74
2023/04/30 09:13:49;;;;;;;0.63;0.63;;;;;;;;;;4934926;28;20054;-75
2023/04/30 09:16:15;;;;;;;0.88;0.50;;;;;;;;;;4948346;28;20042;-74
2023/04/30 09:18:41;;;;;;;0.22;0.22;;;;;;;;;;4948876;28;20037;-74
2023/04/30 09:21:07;;;;;;;3.75;0.60;;;;;;;;;;4942214;28;20368;-74
2023/04/30 09:23:34;;;;;;;1.40;0.50;;;;;;;;;;4940627;28;20054;-75
2023/04/30 09:26:00;;;;;;;0.40;0.40;;;;;;;;;;4942195;28;20028;-75
2023/04/30 09:28:27;;;;;;;0.77;0.57;;;;;;;;;;4947973;28;20042;-74
2023/04/30 09:30:55;;;;;;;0.40;0.40;;;;;;;;;;4944212;28;20446;-75
2023/04/30 09:33:21;;;;;;;1.35;0.50;;;;;;;;;;4946652;28;20466;-75
2023/04/30 09:35:48;;;;;;;0.30;0.30;;;;;;;;;;4934644;29;20038;-76
2023/04/30 09:38:27;;;;;;;0.47;0.45;;;;;;;;;;4935965;28;20106;-75
2023/04/30 09:40:53;;;;;;;0.90;0.90;;;;;;;;;;4937394;28;20020;-75
2023/04/30 09:43:19;;;;;;;0.57;0.55;;;;;;;;;;4941320;28;20386;-75
2023/04/30 09:45:50;;;;;;;0.43;0.43;;;;;;;;;;4954178;28;20034;-75
2023/04/30 09:48:17;;;;;;;0.40;0.40;;;;;;;;;;4950338;28;20493;-75
2023/04/30 09:50:43;;;;;;;2.75;0.82;;;;;;;;;;4955085;28;20067;-75
2023/04/30 09:53:12;;;;;;;2.53;0.80;;;;;;;;;;4955533;28;20023;-75
2023/04/30 09:55:41;;;;;;;1.65;0.70;;;;;;;;;;4953611;28;20455;-75
2023/04/30 09:58:07;;;;;;;0.43;0.40;;;;;;;;;;4955066;28;20057;-75
2023/04/30 10:00:34;;;;;;;0.50;0.40;;;;;;;;;;4955616;28;20070;-76
2023/04/30 10:03:06;;;;;;;0.52;0.32;;;;;;;;;;4945200;28;20027;-75
2023/04/30 10:05:33;;;;;;;0.80;0.55;;;;;;;;;;4953443;28;20434;-75
2023/04/30 10:07:59;;;;;;;0.52;0.52;;;;;;;;;;4942264;28;20087;-75
2023/04/30 10:10:26;;;;;;;0.45;0.45;;;;;;;;;;4954271;28;20027;-75
2023/04/30 10:12:55;;;;;;;0.68;0.68;;;;;;;;;;4948624;28;20089;-75
2023/04/30 10:15:26;;;;;;;1.50;0.60;;;;;;;;;;4944904;28;20024;-75
2023/04/30 10:18:01;;;;;;;0.50;0.30;;;;;;;;;;4950332;28;20033;-75
2023/04/30 10:20:28;;;;;;;1.85;0.47;;;;;;;;;;4949259;28;20054;-75
2023/04/30 10:22:55;;;;;;;1.48;0.98;;;;;;;;;;4951411;28;20444;-75
2023/04/30 10:25:22;;;;;;;2.30;0.55;;;;;;;;;;4949181;28;20254;-75
2023/04/30 10:27:49;;;;;;;0.75;0.52;;;;;;;;;;4951064;28;20059;-76
2023/04/30 10:30:15;;;;;;;0.35;0.35;;;;;;;;;;4950599;28;20045;-75
2023/04/30 10:32:48;;;;;;;0.50;0.50;;;;;;;;;;4954798;28;20035;-75
2023/04/30 10:35:18;;;;;;;0.95;0.50;;;;;;;;;;4943570;28;20334;-75
2023/04/30 10:37:53;;;;;;;0.55;0.55;;;;;;;;;;4953044;28;20035;-75
2023/04/30 10:40:19;;;;;;;0.43;0.43;;;;;;;;;;4950300;28;20028;-75
2023/04/30 10:42:46;;;;;;;1.33;0.52;;;;;;;;;;4955166;28;20043;-75
2023/04/30 10:45:12;;;;;;;0.75;0.30;;;;;;;;;;4950097;28;20069;-75
2023/04/30 10:47:41;;;;;;;2.35;0.70;;;;;;;;;;4949807;28;20031;-76
2023/04/30 10:50:10;;;;;;;0.50;0.28;;;;;;;;;;4948370;28;20031;-76
2023/04/30 10:52:37;;;;;;;1.70;0.75;;;;;;;;;;4949543;28;20027;-76
2023/04/30 10:55:04;;;;;;;0.73;0.55;;;;;;;;;;4950070;28;20194;-76
2023/04/30 10:57:30;;;;;;;0.50;0.50;;;;;;;;;;4942464;28;20055;-76
2023/04/30 11:00:13;;;;;;;0.40;0.40;;;;;;;;;;4945709;28;20023;-76
2023/04/30 11:02:42;;;;;;;0.88;0.45;;;;;;;;;;4937152;28;20443;-76
2023/04/30 11:05:13;;;;;;;1.25;0.40;;;;;;;;;;4950411;28;20106;-77
2023/04/30 11:07:55;;;;;;;0.40;0.40;;;;;;;;;;4951397;28;20181;-76
2023/04/30 11:10:22;;;;;;;0.43;0.43;;;;;;;;;;4946607;28;20072;-76
2023/04/30 11:12:49;;;;;;;0.75;0.60;;;;;;;;;;4944729;28;20108;-75
2023/04/30 11:15:16;;;;;;;2.70;0.50;;;;;;;;;;4950079;28;20066;-76
2023/04/30 11:17:44;;;;;;;0.43;0.43;;;;;;;;;;4950042;28;20042;-75
2023/04/30 11:20:12;;;;;;;0.50;0.50;;;;;;;;;;4944617;28;20517;-75
2023/04/30 11:22:38;;;;;;;0.60;0.60;;;;;;;;;;4945494;28;20027;-75
2023/04/30 11:25:05;;;;;;;0.40;0.40;;;;;;;;;;4947153;28;20031;-76
2023/04/30 11:27:33;;;;;;;2.80;0.73;;;;;;;;;;4946943;28;20031;-76
2023/04/30 11:29:59;;;;;;;1.52;0.60;;;;;;;;;;4943219;28;20459;-76
2023/04/30 11:32:31;;;;;;;1.17;0.50;;;;;;;;;;4931799;29;20028;-76
2023/04/30 11:34:58;;;;;;;1.05;0.50;;;;;;;;;;4933005;28;20046;-76
2023/04/30 11:37:30;;;;;;;0.50;0.50;;;;;;;;;;4947174;28;20033;-76
2023/04/30 11:40:03;;;;;;;0.70;0.50;;;;;;;;;;4949801;28;20031;-76
2023/04/30 11:42:30;;;;;;;1.42;0.77;;;;;;;;;;4959627;28;20020;-80
2023/04/30 11:45:06;;;;;;;15.02;1.30;;;;;;;;;;4940780;28;20015;-86
2023/04/30 11:47:39;;;;;;;0.85;0.80;;;;;;;;;;4946370;28;20030;-89
2023/04/30 11:50:05;;;;;;;1.25;0.60;;;;;;;;;;4952228;28;20110;-89
2023/04/30 11:52:31;;;;;;;0.57;0.57;;;;;;;;;;4959369;28;20035;-90
2023/04/30 11:54:59;;;;;;;1.40;0.68;;;;;;;;;;4929752;29;20090;-88
2023/04/30 11:57:25;;;;;;;3.83;0.65;;;;;;;;;;4943016;28;20053;-87
2023/04/30 11:59:51;;;;;;;0.93;0.80;;;;;;;;;;4948799;28;20031;-87
2023/04/30 12:02:20;;;;;;;0.75;0.70;;;;;;;;;;4947003;28;20038;-87
2023/04/30 12:04:47;;;;;;;0.60;0.60;;;;;;;;;;4948105;28;20081;-86
2023/04/30 12:07:13;;;;;;;0.68;0.60;;;;;;;;;;4932261;29;20083;-87
2023/04/30 12:09:52;;;;;;;0.88;0.60;;;;;;;;;;4936550;28;20036;-86
2023/04/30 12:12:28;;;;;;;0.60;0.60;;;;;;;;;;4960127;28;20075;-87
2023/04/30 12:14:54;;;;;;;0.65;0.47;;;;;;;;;;4955466;28;20043;-84
2023/04/30 12:17:33;;;;;;;0.90;0.70;;;;;;;;;;4933180;29;20498;-86
2023/04/30 12:19:59;;;;;;;0.57;0.50;;;;;;;;;;4947586;28;20035;-86
2023/04/30 12:22:25;;;;;;;0.90;0.85;;;;;;;;;;4943488;28;20375;-87
2023/04/30 12:24:51;;;;;;;0.80;0.80;;;;;;;;;;4928231;29;20027;-85
2023/04/30 12:27:17;;;;;;;1.58;0.65;;;;;;;;;;4949693;28;20110;-86
2023/04/30 12:29:46;;;;;;;0.55;0.55;;;;;;;;;;4946230;28;20058;-86
2023/04/30 12:32:15;;;;;;;0.50;0.50;;;;;;;;;;4942886;28;20034;-85
2023/04/30 12:34:41;;;;;;;0.60;0.60;;;;;;;;;;4945872;28;20498;-88
2023/04/30 12:37:10;;;;;;;0.68;0.50;;;;;;;;;;4943918;28;20039;-90
2023/04/30 12:39:36;;;;;;;0.82;0.70;;;;;;;;;;4952452;28;20027;-91
2023/04/30 12:42:03;;;;;;;0.70;0.63;;;;;;;;;;4950672;29;20027;-90
2023/04/30 12:44:29;;;;;;;1.30;1.00;;;;;;;;;;4954307;28;20422;-89
2023/04/30 12:46:56;;;;;;;1.27;0.75;;;;;;;;;;4955905;28;20027;-87
2023/04/30 12:49:29;;;;;;;0.90;0.60;;;;;;;;;;4943201;28;20082;-85
2023/04/30 12:51:59;;;;;;;1.05;0.80;;;;;;;;;;4947439;28;20090;-89
2023/04/30 12:54:29;;;;;;;3.65;0.70;;;;;;;;;;4947118;29;20031;-91
2023/04/30 12:57:19;;;;;;;0.60;0.60;;;;;;;;;;4955353;28;20031;-92
2023/04/30 12:59:51;;;;;;;2.35;0.50;;;;;;;;;;4946933;28;20106;-85
2023/04/30 13:02:18;;;;;;;0.93;0.60;;;;;;;;;;4938244;28;20091;-81
2023/04/30 13:04:44;;;;;;;0.40;0.40;;;;;;;;;;4955156;28;20425;-82
2023/04/30 13:07:10;;;;;;;1.73;0.75;;;;;;;;;;4948322;28;20132;-81
2023/04/30 13:09:37;;;;;;;1.25;0.73;;;;;;;;;;4946336;28;20039;-80
2023/04/30 13:12:03;;;;;;;0.68;0.50;;;;;;;;;;4942522;28;20368;-80
2023/04/30 13:14:29;;;;;;;1.13;0.90;;;;;;;;;;4944304;28;20036;-80
2023/04/30 13:16:57;;;;;;;1.73;0.77;;;;;;;;;;4949716;28;20367;-83
2023/04/30 13:19:24;;;;;;;1.25;1.00;;;;;;;;;;4945874;28;20039;-83
2023/04/30 13:21:50;;;;;;;0.75;0.65;;;;;;;;;;4938013;28;20023;-83
2023/04/30 13:24:16;;;;;;;0.85;0.70;;;;;;;;;;4948086;28;20446;-83
2023/04/30 13:26:42;;;;;;;0.73;0.70;;;;;;;;;;4940090;28;20048;-83
2023/04/30 13:29:08;;;;;;;1.75;1.05;;;;;;;;;;4940539;29;20041;-85
2023/04/30 13:31:35;;;;;;;0.52;0.52;;;;;;;;;;4940302;28;20034;-85
2023/04/30 13:34:01;;;;;;;2.33;0.57;;;;;;;;;;4956189;28;20031;-86
2023/04/30 13:36:28;;;;;;;0.52;0.50;;;;;;;;;;4944039;28;20462;-85
2023/04/30 13:38:54;;;;;;;0.60;0.40;;;;;;;;;;4948812;28;20043;-86
2023/04/30 13:41:24;;;;;;;1.73;0.57;;;;;;;;;;4948919;28;20123;-88
2023/04/30 13:43:51;;;;;;;0.52;0.52;;;;;;;;;;4950559;28;20391;-86
2023/04/30 13:46:17;;;;;;;0.68;0.55;;;;;;;;;;4933845;29;20035;-86
2023/04/30 13:48:47;;;;;;;0.60;0.60;;;;;;;;;;4949046;28;20503;-86
2023/04/30 13:51:13;;;;;;;0.95;0.60;;;;;;;;;;4932055;29;20035;-85
2023/04/30 13:53:39;;;;;;;0.40;0.40;;;;;;;;;;4933443;28;20536;-87
2023/04/30 13:56:05;;;;;;;0.82;0.40;;;;;;;;;;4954936;28;20019;-86
2023/04/30 13:58:32;;;;;;;1.30;0.80;;;;;;;;;;4948503;28;20027;-86
2023/04/30 14:01:01;;;;;;;0.40;0.40;;;;;;;;;;4940092;28;20040;-87
2023/04/30 14:03:27;;;;;;;0.50;0.43;;;;;;;;;;4935911;28;20023;-84
2023/04/30 14:05:54;;;;;;;0.60;0.60;;;;;;;;;;4955013;28;20047;-85
2023/04/30 14:08:20;;;;;;;0.70;0.70;;;;;;;;;;4946606;28;20121;-85
2023/04/30 14:10:46;;;;;;;0.60;0.60;;;;;;;;;;4943750;28;20042;-81
2023/04/30 14:13:12;;;;;;;0.45;0.45;;;;;;;;;;4947346;28;20027;-77
2023/04/30 14:15:38;;;;;;;0.40;0.40;;;;;;;;;;4954596;28;20098;-81
2023/04/30 14:18:04;;;;;;;2.85;1.27;;;;;;;;;;4941640;28;20060;-89
2023/04/30 14:20:30;;;;;;;0.50;0.38;;;;;;;;;;4931978;29;20070;-83
2023/04/30 14:22:56;;;;;;;0.60;0.45;;;;;;;;;;4942529;28;20043;-89
2023/04/30 14:25:22;;;;;;;0.65;0.45;;;;;;;;;;4944718;28;20039;-90
2023/04/30 14:27:48;;;;;;;0.40;0.40;;;;;;;;;;4947086;28;20031;-83
2023/04/30 14:30:14;;;;;;;0.88;0.70;;;;;;;;;;4946486;28;20039;-92
2023/04/30 14:32:41;;;;;;;0.75;0.75;;;;;;;;;;4953580;29;20157;-93
2023/04/30 14:35:08;;;;;;;0.60;0.47;;;;;;;;;;4961913;28;20023;-92
2023/04/30 14:37:34;;;;;;;0.55;0.55;;;;;;;;;;4963058;28;20124;-94
2023/04/30 14:40:00;;;;;;;1.52;0.98;;;;;;;;;;4959040;28;20028;-93
2023/04/30 14:42:27;;;;;;;0.85;0.60;;;;;;;;;;5268013;23;20091;-85
2023/04/30 14:44:53;;;;;;;1.60;0.50;;;;;;;;;;4987099;28;20039;-88